createdAt,value
2019-03-24T00:02:11.616Z,71.63
2019-03-24T00:04:40.102Z,93.47
2019-03-24T00:07:08.580Z,70.67
2019-03-24T00:09:37.021Z,75.67
2019-03-24T00:12:05.804Z,77.13
2019-03-24T00:14:34.258Z,84.93
2019-03-24T00:17:02.763Z,79.40
2019-03-24T00:19:31.240Z,79.20
2019-03-24T00:21:59.793Z,67.80
2019-03-24T00:24:28.365Z,73.53
2019-03-24T00:26:56.869Z,91.70
2019-03-24T00:29:25.422Z,77.60
2019-03-24T00:31:53.968Z,76.90
2019-03-24T00:34:22.462Z,71.47
2019-03-24T00:36:51.005Z,70.50
2019-03-24T00:39:19.597Z,73.93
2019-03-24T00:41:48.072Z,74.50
2019-03-24T00:44:16.584Z,74.07
2019-03-24T00:46:45.119Z,70.87
2019-03-24T00:49:13.591Z,70.17
2019-03-24T00:51:42.077Z,67.90
2019-03-24T00:54:10.505Z,76.10
2019-03-24T00:56:39.027Z,60.63
2019-03-24T00:59:07.621Z,76.17
2019-03-24T01:01:36.090Z,77.30
2019-03-24T01:04:04.682Z,79.30
2019-03-24T01:06:33.128Z,91.17
2019-03-24T01:09:01.705Z,69.17
2019-03-24T01:11:30.138Z,74.30
2019-03-24T01:13:58.626Z,80.83
2019-03-24T01:16:27.091Z,73.77
2019-03-24T01:18:55.665Z,71.27
2019-03-24T01:21:24.135Z,78.47
2019-03-24T01:23:52.661Z,75.63
2019-03-24T01:26:21.119Z,72.33
2019-03-24T01:28:49.678Z,82.33
2019-03-24T01:31:18.129Z,68.67
2019-03-24T01:33:46.612Z,69.43
2019-03-24T01:36:15.034Z,74.17
2019-03-24T01:38:43.612Z,74.73
2019-03-24T01:41:12.087Z,74.10
2019-03-24T01:43:40.549Z,89.73
2019-03-24T01:46:09.026Z,66.80
2019-03-24T01:48:37.498Z,75.90
2019-03-24T01:51:06.055Z,69.80
2019-03-24T01:53:34.615Z,83.40
2019-03-24T01:56:03.187Z,88.30
2019-03-24T01:58:31.658Z,85.27
2019-03-24T02:01:00.116Z,81.33
2019-03-24T02:03:28.693Z,81.73
2019-03-24T02:05:57.214Z,80.90
2019-03-24T02:08:25.930Z,72.20
2019-03-24T02:10:54.368Z,77.30
2019-03-24T02:13:22.999Z,74.97
2019-03-24T02:15:51.438Z,81.10
2019-03-24T02:18:19.903Z,65.80
2019-03-24T02:20:48.391Z,78.50
2019-03-24T02:23:16.938Z,85.77
2019-03-24T02:25:45.390Z,81.60
2019-03-24T02:28:13.961Z,80.30
2019-03-24T02:30:42.500Z,84.93
2019-03-24T02:33:10.957Z,82.17
2019-03-24T02:35:39.422Z,69.17
2019-03-24T02:38:07.879Z,68.20
2019-03-24T02:40:36.350Z,80.20
2019-03-24T02:43:04.804Z,75.47
2019-03-24T02:45:33.333Z,71.23
2019-03-24T02:48:21.163Z,77.40
2019-03-24T02:51:08.944Z,75.70
2019-03-24T02:53:56.713Z,73.93
2019-03-24T02:56:44.496Z,79.00
2019-03-24T02:59:32.273Z,79.03
2019-03-24T03:02:20.117Z,85.90
2019-03-24T03:05:07.958Z,79.87
2019-03-24T03:07:55.733Z,86.37
2019-03-24T03:10:43.532Z,80.03
2019-03-24T03:13:31.292Z,79.67
2019-03-24T03:16:11.936Z,74.70
2019-03-24T03:18:52.641Z,83.93
2019-03-24T03:21:21.083Z,73.47
2019-03-24T03:24:08.850Z,84.07
2019-03-24T03:26:56.635Z,76.20
2019-03-24T03:29:44.390Z,85.07
2019-03-24T03:32:32.197Z,87.67
2019-03-24T03:35:20.005Z,83.23
2019-03-24T03:38:07.781Z,71.00
2019-03-24T03:40:36.235Z,78.07
2019-03-24T03:43:24.002Z,80.23
2019-03-24T03:46:11.783Z,79.30
2019-03-24T03:48:59.547Z,91.13
2019-03-24T03:51:47.568Z,74.17
2019-03-24T03:54:35.361Z,71.07
2019-03-24T04:00:48.257Z,79.40
2019-03-24T04:03:36.033Z,65.67
2019-03-24T04:06:04.471Z,71.27
2019-03-24T04:08:52.240Z,77.10
2019-03-24T04:11:40.024Z,68.00
2019-03-24T04:14:27.788Z,77.10
2019-03-24T04:17:15.583Z,79.00
2019-03-24T04:20:24.073Z,69.33
2019-03-24T04:23:11.880Z,85.10
2019-03-24T04:25:59.643Z,73.13
2019-03-24T04:28:47.748Z,68.13
2019-03-24T04:31:35.809Z,67.00
2019-03-24T04:34:23.581Z,62.73
2019-03-24T04:37:11.361Z,74.93
2019-03-24T04:39:59.122Z,65.90
2019-03-24T04:42:47.147Z,62.90
2019-03-24T04:45:34.926Z,68.10
2019-03-24T04:48:22.709Z,70.83
2019-03-24T04:51:10.471Z,65.40
2019-03-24T04:53:58.259Z,72.10
2019-03-24T04:56:46.031Z,74.07
2019-03-24T04:59:33.807Z,72.17
2019-03-24T05:02:21.619Z,62.20
2019-03-24T05:05:09.511Z,71.40
2019-03-24T05:07:57.468Z,63.80
2019-03-24T05:10:45.251Z,74.07
2019-03-24T05:13:33.038Z,73.50
2019-03-24T05:16:13.912Z,69.80
2019-03-24T05:18:54.892Z,71.57
2019-03-24T05:21:35.706Z,67.20
2019-03-24T05:24:16.634Z,69.23
2019-03-24T05:26:57.546Z,68.77
2019-03-24T05:29:37.962Z,65.70
2019-03-24T05:32:18.527Z,65.27
2019-03-24T05:34:58.969Z,73.17
2019-03-24T05:37:39.748Z,72.93
2019-03-24T05:40:20.615Z,76.27
2019-03-24T05:43:01.638Z,70.93
2019-03-24T05:45:42.596Z,76.33
2019-03-24T05:48:23.393Z,69.87
2019-03-24T05:50:51.963Z,76.10
2019-03-24T05:53:20.489Z,69.57
2019-03-24T05:55:49.184Z,63.83
2019-03-24T05:58:17.702Z,77.23
2019-03-24T06:00:46.195Z,70.53
2019-03-24T06:03:14.675Z,69.63
2019-03-24T06:05:43.167Z,74.37
2019-03-24T06:08:11.726Z,70.67
2019-03-24T06:10:40.185Z,72.53
2019-03-24T06:13:08.730Z,61.53
2019-03-24T06:15:37.236Z,71.30
2019-03-24T06:18:05.746Z,57.73
2019-03-24T06:20:34.277Z,76.70
2019-03-24T06:23:02.870Z,73.87
2019-03-24T06:25:34.736Z,69.83
2019-03-24T06:28:01.860Z,63.73
2019-03-24T06:30:30.400Z,80.10
2019-03-24T06:32:58.908Z,72.47
2019-03-24T06:35:27.527Z,72.30
2019-03-24T06:37:56.105Z,76.83
2019-03-24T06:40:31.372Z,90.63
2019-03-24T06:43:00.002Z,86.27
2019-03-24T06:45:29.067Z,91.53
2019-03-24T06:47:58.401Z,100.87
2019-03-24T06:50:26.907Z,81.77
2019-03-24T06:52:57.442Z,96.57
2019-03-24T06:55:25.929Z,95.00
2019-03-24T06:57:54.435Z,85.67
2019-03-24T07:00:22.956Z,77.43
2019-03-24T07:02:51.529Z,82.73
2019-03-24T07:05:20.094Z,91.23
2019-03-24T07:07:48.686Z,92.00
2019-03-24T07:10:17.251Z,93.40
2019-03-24T07:12:45.805Z,89.77
2019-03-24T07:15:14.553Z,82.90
2019-03-24T07:17:42.994Z,87.63
2019-03-24T07:20:11.859Z,85.43
2019-03-24T07:22:40.391Z,87.00
2019-03-24T07:25:09.855Z,97.50
2019-03-24T07:27:39.313Z,83.20
2019-03-24T07:30:09.256Z,94.57
2019-03-24T07:32:37.707Z,89.87
2019-03-24T07:35:07.009Z,96.23
2019-03-24T07:37:35.601Z,95.57
2019-03-24T07:40:23.462Z,89.97
2019-03-24T07:43:11.233Z,92.40
2019-03-24T07:45:59.223Z,95.03
2019-03-24T07:48:27.821Z,85.23
2019-03-24T07:50:56.683Z,99.50
2019-03-24T07:53:25.580Z,89.87
2019-03-24T07:55:54.360Z,92.57
2019-03-24T07:58:23.388Z,86.57
2019-03-24T08:00:52.149Z,82.03
2019-03-24T08:03:20.764Z,100.20
2019-03-24T08:05:49.505Z,88.33
2019-03-24T08:08:18.280Z,88.70
2019-03-24T08:10:47.084Z,95.83
2019-03-24T08:13:16.728Z,94.93
2019-03-24T08:15:45.293Z,101.53
2019-03-24T08:18:14.010Z,83.60
2019-03-24T08:20:42.654Z,100.77
2019-03-24T08:23:11.582Z,101.57
2019-03-24T08:25:40.148Z,90.03
2019-03-24T08:28:08.794Z,94.10
2019-03-24T08:30:37.676Z,88.03
2019-03-24T08:33:06.613Z,96.00
2019-03-24T08:35:36.219Z,83.33
2019-03-24T08:38:05.497Z,86.40
2019-03-24T08:40:34.151Z,104.20
2019-03-24T08:43:03.002Z,81.40
2019-03-24T08:45:32.413Z,88.97
2019-03-24T08:48:01.017Z,82.67
2019-03-24T08:50:29.771Z,85.23
2019-03-24T08:52:58.547Z,79.83
2019-03-24T08:55:27.168Z,85.67
2019-03-24T08:57:55.841Z,80.50
2019-03-24T09:00:30.492Z,77.90
2019-03-24T09:02:54.897Z,76.77
2019-03-24T09:05:23.606Z,77.97
2019-03-24T09:07:52.321Z,68.60
2019-03-24T09:10:21.044Z,89.30
2019-03-24T09:12:49.805Z,74.50
2019-03-24T09:15:18.469Z,80.10
2019-03-24T09:17:47.171Z,80.20
2019-03-24T09:20:16.066Z,77.30
2019-03-24T09:22:44.872Z,78.77
2019-03-24T09:25:13.877Z,68.77
2019-03-24T09:27:42.620Z,73.63
2019-03-24T09:30:14.342Z,72.10
2019-03-24T09:32:42.985Z,78.93
2019-03-24T09:35:11.628Z,77.43
2019-03-24T09:37:40.353Z,83.33
2019-03-24T09:40:12.018Z,77.97
2019-03-24T09:43:00.795Z,85.93
2019-03-24T09:45:48.560Z,74.13
2019-03-24T09:48:36.338Z,80.17
2019-03-24T09:51:24.094Z,85.90
2019-03-24T09:54:11.896Z,75.03
2019-03-24T09:56:59.673Z,80.37
2019-03-24T09:59:47.439Z,80.20
2019-03-24T10:02:15.859Z,90.70
2019-03-24T10:05:03.835Z,79.33
2019-03-24T10:07:51.599Z,81.00
2019-03-24T10:10:39.386Z,86.73
2019-03-24T10:13:27.174Z,92.53
2019-03-24T10:16:08.312Z,88.53
2019-03-24T10:18:49.398Z,84.37
2019-03-24T10:21:30.124Z,83.73
2019-03-24T10:24:10.923Z,82.77
2019-03-24T10:26:51.713Z,73.50
2019-03-24T10:29:32.772Z,75.70
2019-03-24T10:32:13.550Z,73.67
2019-03-24T10:34:54.635Z,73.47
2019-03-24T10:37:35.730Z,75.30
2019-03-24T10:40:16.575Z,78.13
2019-03-24T10:42:57.136Z,79.33
2019-03-24T10:45:37.816Z,77.83
2019-03-24T10:48:18.704Z,80.67
2019-03-24T10:50:59.544Z,79.43
2019-03-24T10:53:40.035Z,79.37
2019-03-24T10:56:21.126Z,83.40
2019-03-24T10:59:01.909Z,75.60
2019-03-24T11:01:42.921Z,80.93
2019-03-24T11:04:23.805Z,80.87
2019-03-24T11:07:04.770Z,80.00
2019-03-24T11:09:45.836Z,86.17
2019-03-24T11:12:26.480Z,79.47
2019-03-24T11:15:07.295Z,86.63
2019-03-24T11:17:48.235Z,85.70
2019-03-24T11:20:29.031Z,86.50
2019-03-24T11:23:10.001Z,86.50
2019-03-24T11:25:50.678Z,86.77
2019-03-24T11:28:31.330Z,99.73
2019-03-24T11:31:11.598Z,80.60
2019-03-24T11:33:52.632Z,79.83
2019-03-24T11:36:21.082Z,81.07
2019-03-24T11:39:08.922Z,92.73
2019-03-24T11:41:56.729Z,80.90
2019-03-24T11:44:44.499Z,91.97
2019-03-24T11:47:32.274Z,90.70
2019-03-24T11:50:20.087Z,79.47
2019-03-24T11:53:07.852Z,77.20
2019-03-24T11:55:55.656Z,89.10
2019-03-24T11:58:43.455Z,82.60
2019-03-24T12:01:12.057Z,80.83
2019-03-24T12:03:59.844Z,79.97
2019-03-24T12:06:47.639Z,77.13
2019-03-24T12:09:35.402Z,80.07
2019-03-24T12:12:03.847Z,85.17
2019-03-24T12:14:44.092Z,88.13
2019-03-24T12:17:25.159Z,83.63
2019-03-24T12:20:06.064Z,86.80
2019-03-24T12:22:47.177Z,79.83
2019-03-24T12:25:28.096Z,79.33
2019-03-24T12:28:08.901Z,90.60
2019-03-24T12:30:49.827Z,90.73
2019-03-24T12:33:30.571Z,76.93
2019-03-24T12:36:11.604Z,78.67
2019-03-24T12:38:52.642Z,90.07
2019-03-24T12:41:33.562Z,76.40
2019-03-24T12:44:14.299Z,80.03
2019-03-24T12:46:42.794Z,82.40
2019-03-24T12:49:30.618Z,74.77
2019-03-24T12:52:18.455Z,75.03
2019-03-24T12:55:07.001Z,81.43
2019-03-24T12:57:54.790Z,76.83
2019-03-24T13:00:42.551Z,75.17
2019-03-24T13:03:30.339Z,84.10
2019-03-24T13:06:18.112Z,77.50
2019-03-24T13:09:06.592Z,80.70
2019-03-24T13:11:54.361Z,78.40
2019-03-24T13:14:33.105Z,81.57
2019-03-24T13:17:20.906Z,82.10
2019-03-24T13:20:19.557Z,86.77
2019-03-24T13:22:58.449Z,86.93
2019-03-24T13:25:46.273Z,79.67
2019-03-24T13:28:34.071Z,78.30
2019-03-24T13:31:21.845Z,78.60
2019-03-24T13:34:09.628Z,74.83
2019-03-24T13:36:57.408Z,73.87
2019-03-24T13:39:45.206Z,70.67
2019-03-24T13:42:33.024Z,71.43
2019-03-24T13:45:01.496Z,70.77
2019-03-24T13:47:49.286Z,70.07
2019-03-24T13:50:37.065Z,71.57
2019-03-24T13:53:05.537Z,70.70
2019-03-24T13:55:53.302Z,73.77
2019-03-24T13:58:41.102Z,68.77
2019-03-24T14:01:28.963Z,68.20
2019-03-24T14:04:16.774Z,68.17
2019-03-24T14:07:04.627Z,75.70
2019-03-24T14:09:52.475Z,74.53
2019-03-24T14:12:40.340Z,75.67
2019-03-24T14:15:20.701Z,70.30
2019-03-24T14:18:01.506Z,77.07
2019-03-24T14:20:43.644Z,64.33
2019-03-24T14:23:24.949Z,63.70
2019-03-24T14:26:05.767Z,67.00
2019-03-24T14:28:46.459Z,62.97
2019-03-24T14:31:27.251Z,66.33
2019-03-24T14:34:07.886Z,71.93
2019-03-24T14:36:49.020Z,68.97
2019-03-24T14:39:29.715Z,65.00
2019-03-24T14:42:10.912Z,68.83
2019-03-24T14:44:39.552Z,59.33
2019-03-24T14:47:08.159Z,55.67
2019-03-24T14:49:36.866Z,55.70
2019-03-24T14:52:05.474Z,56.00
2019-03-24T14:54:33.989Z,55.17
2019-03-24T14:57:02.637Z,71.63
2019-03-24T14:59:31.280Z,58.80
2019-03-24T15:02:00.010Z,58.87
2019-03-24T15:04:28.549Z,57.33
2019-03-24T15:06:57.184Z,64.43
2019-03-24T15:09:25.854Z,58.17
2019-03-24T15:11:54.548Z,55.80
2019-03-24T15:14:23.234Z,58.57
2019-03-24T15:16:52.404Z,59.50
2019-03-24T15:19:21.044Z,59.90
2019-03-24T15:21:49.744Z,60.70
2019-03-24T15:24:18.185Z,71.30
2019-03-24T15:26:46.622Z,67.90
2019-03-24T15:29:15.156Z,60.43
2019-03-24T15:31:43.589Z,53.50
2019-03-24T15:34:12.265Z,62.10
2019-03-24T15:36:40.901Z,60.97
2019-03-24T15:39:09.843Z,61.50
2019-03-24T15:41:38.420Z,61.50
2019-03-24T15:44:07.058Z,66.33
2019-03-24T15:46:41.767Z,69.60
2019-03-24T15:49:10.389Z,56.83
2019-03-24T15:51:38.999Z,61.20
2019-03-24T15:54:07.785Z,58.97
2019-03-24T15:56:36.279Z,59.10
2019-03-24T15:59:04.717Z,58.63
2019-03-24T16:01:33.409Z,55.67
2019-03-24T16:04:02.020Z,62.90
2019-03-24T16:06:30.826Z,57.40
2019-03-24T16:08:59.367Z,51.83
2019-03-24T16:11:27.893Z,58.43
2019-03-24T16:13:56.356Z,49.93
2019-03-24T16:16:25.016Z,52.57
2019-03-24T16:18:53.465Z,53.47
2019-03-24T16:21:27.873Z,52.87
2019-03-24T16:23:52.289Z,82.87
2019-03-24T16:26:20.971Z,206.77
2019-03-24T16:28:49.622Z,70.20
2019-03-24T16:31:18.273Z,67.13
2019-03-24T16:33:46.782Z,58.83
2019-03-24T16:36:15.239Z,52.90
2019-03-24T16:38:48.833Z,61.13
2019-03-24T16:41:15.187Z,62.63
2019-03-24T16:43:43.933Z,58.97
2019-03-24T16:46:12.387Z,49.63
2019-03-24T16:48:40.943Z,50.87
2019-03-24T16:51:09.642Z,53.47
2019-03-24T16:53:38.199Z,56.17
2019-03-24T16:56:06.785Z,56.33
2019-03-24T16:58:35.420Z,51.50
2019-03-24T17:01:04.280Z,48.87
2019-03-24T17:03:32.884Z,49.20
2019-03-24T17:06:01.356Z,45.27
2019-03-24T17:08:30.031Z,44.03
2019-03-24T17:10:58.641Z,41.03
2019-03-24T17:13:27.366Z,41.00
2019-03-24T17:15:55.983Z,44.70
2019-03-24T17:18:24.579Z,42.70
2019-03-24T17:20:53.068Z,42.13
2019-03-24T17:23:21.532Z,39.87
2019-03-24T17:25:49.962Z,40.20
2019-03-24T17:28:18.416Z,32.83
2019-03-24T17:30:46.850Z,29.50
2019-03-24T17:33:16.254Z,22.60
2019-03-24T17:35:45.712Z,33.33
2019-03-24T17:38:14.150Z,25.50
2019-03-24T17:40:42.582Z,26.87
2019-03-24T17:43:11.022Z,27.80
2019-03-24T17:45:39.450Z,32.37
2019-03-24T17:48:07.907Z,26.07
2019-03-24T17:50:36.327Z,28.60
2019-03-24T17:53:06.717Z,23.53
2019-03-24T17:55:34.940Z,26.00
2019-03-24T17:58:03.455Z,23.90
2019-03-24T18:00:44.384Z,27.73
2019-03-24T18:03:12.819Z,26.80
2019-03-24T18:05:41.321Z,23.47
2019-03-24T18:08:09.839Z,19.87
2019-03-24T18:10:38.528Z,20.00
2019-03-24T18:13:07.084Z,18.77
2019-03-24T18:15:35.564Z,22.07
2019-03-24T18:18:04.052Z,25.97
2019-03-24T18:20:33.927Z,15.37
2019-03-24T18:23:02.445Z,16.83
2019-03-24T18:25:30.882Z,16.07
2019-03-24T18:27:59.311Z,15.20
2019-03-24T18:30:27.982Z,18.43
2019-03-24T18:32:56.411Z,13.77
2019-03-24T18:35:24.867Z,20.13
2019-03-24T18:37:54.295Z,18.40
2019-03-24T18:40:22.770Z,19.03
2019-03-24T18:42:51.229Z,23.53
2019-03-24T18:45:20.067Z,20.77
2019-03-24T18:47:48.519Z,20.77
2019-03-24T18:50:17.202Z,22.87
2019-03-24T18:52:45.787Z,15.20
2019-03-24T18:55:14.574Z,19.07
2019-03-24T18:57:43.007Z,20.40
2019-03-24T19:00:13.657Z,15.93
2019-03-24T19:02:42.307Z,14.67
2019-03-24T19:05:11.191Z,19.23
2019-03-24T19:07:39.631Z,20.70
2019-03-24T19:10:10.342Z,16.20
2019-03-24T19:12:38.861Z,14.17
2019-03-24T19:15:08.479Z,14.27
2019-03-24T19:17:37.066Z,15.93
2019-03-24T19:20:06.372Z,18.00
2019-03-24T19:22:34.923Z,19.50
2019-03-24T19:25:08.194Z,16.30
2019-03-24T19:27:36.788Z,20.00
2019-03-24T19:30:07.776Z,24.17
2019-03-24T19:32:36.421Z,20.10
2019-03-24T19:35:09.947Z,24.63
2019-03-24T19:37:38.881Z,18.50
2019-03-24T19:40:19.252Z,13.40
2019-03-24T19:42:47.790Z,22.40
2019-03-24T19:45:16.265Z,17.73
2019-03-24T19:47:44.722Z,24.27
2019-03-24T19:50:13.339Z,17.43
2019-03-24T19:52:44.912Z,16.83
2019-03-24T19:55:12.056Z,12.33
2019-03-24T19:57:40.604Z,36.23
2019-03-24T20:00:09.617Z,30.90
2019-03-24T20:02:38.186Z,39.47
2019-03-24T20:05:06.792Z,14.43
2019-03-24T20:07:35.407Z,12.70
2019-03-24T20:10:05.694Z,19.27
2019-03-24T20:12:34.212Z,15.67
2019-03-24T20:15:02.654Z,16.27
2019-03-24T20:17:31.121Z,20.83
2019-03-24T20:19:59.695Z,15.30
2019-03-24T20:22:28.229Z,21.07
2019-03-24T20:24:56.659Z,14.00
2019-03-24T20:27:26.007Z,15.53
2019-03-24T20:29:54.576Z,17.47
2019-03-24T20:32:23.046Z,13.00
2019-03-24T20:34:51.482Z,14.57
2019-03-24T20:37:20.015Z,13.73
2019-03-24T20:39:48.551Z,18.83
2019-03-24T20:42:17.069Z,13.63
2019-03-24T20:44:45.531Z,19.10
2019-03-24T20:47:14.090Z,18.07
2019-03-24T20:49:42.561Z,12.50
2019-03-24T20:52:11.035Z,14.33
2019-03-24T20:54:39.503Z,16.40
2019-03-24T20:57:08.080Z,21.37
2019-03-24T20:59:36.518Z,19.60
2019-03-24T21:02:05.112Z,22.30
2019-03-24T21:04:33.671Z,18.13
2019-03-24T21:07:03.286Z,17.27
2019-03-24T21:09:31.739Z,19.27
2019-03-24T21:12:00.298Z,23.70
2019-03-24T21:14:28.734Z,23.13
2019-03-24T21:16:57.230Z,20.23
2019-03-24T21:19:25.759Z,23.10
2019-03-24T21:21:54.272Z,17.47
2019-03-24T21:24:22.751Z,19.90
2019-03-24T21:26:51.280Z,22.20
2019-03-24T21:29:19.752Z,19.57
2019-03-24T21:31:48.362Z,29.13
2019-03-24T21:34:17.008Z,20.27
2019-03-24T21:36:45.524Z,21.70
2019-03-24T21:39:14.004Z,17.03
2019-03-24T21:41:42.671Z,24.20
2019-03-24T21:44:11.184Z,17.57
2019-03-24T21:46:39.655Z,19.60
2019-03-24T21:49:08.258Z,17.90
2019-03-24T21:51:36.828Z,27.40
2019-03-24T21:54:05.498Z,18.00
2019-03-24T21:56:33.978Z,22.93
2019-03-24T21:59:02.562Z,25.23
2019-03-24T22:01:31.131Z,35.40
2019-03-24T22:03:59.641Z,29.30
2019-03-24T22:06:28.172Z,25.70
2019-03-24T22:08:56.860Z,22.70
2019-03-24T22:11:25.297Z,29.87
2019-03-24T22:13:54.683Z,26.03
2019-03-24T22:16:23.150Z,30.60
2019-03-24T22:18:51.607Z,33.00
2019-03-24T22:21:20.044Z,27.43
2019-03-24T22:23:52.500Z,28.23
2019-03-24T22:26:18.822Z,31.23
2019-03-24T22:28:47.358Z,26.63
2019-03-24T22:31:15.803Z,29.37
2019-03-24T22:33:44.310Z,36.40
2019-03-24T22:36:12.785Z,28.80
2019-03-24T22:38:41.289Z,33.50
2019-03-24T22:41:09.787Z,49.50
2019-03-24T22:43:38.236Z,41.43
2019-03-24T22:46:06.770Z,45.93
2019-03-24T22:48:35.281Z,43.33
2019-03-24T22:51:03.812Z,40.17
2019-03-24T22:53:32.278Z,31.63
2019-03-24T22:56:00.766Z,30.20
2019-03-24T22:58:29.227Z,26.73
2019-03-24T23:00:57.894Z,30.27
2019-03-24T23:03:26.566Z,20.40
2019-03-24T23:05:55.173Z,28.63
2019-03-24T23:08:23.966Z,26.87
2019-03-24T23:10:52.414Z,33.00
2019-03-24T23:13:20.880Z,28.03
2019-03-24T23:15:49.367Z,23.83
2019-03-24T23:18:17.879Z,23.37
2019-03-24T23:20:46.363Z,23.40
2019-03-24T23:23:14.825Z,23.93
2019-03-24T23:25:43.276Z,30.10
2019-03-24T23:28:11.817Z,22.07
2019-03-24T23:30:40.351Z,31.90
2019-03-24T23:33:08.924Z,18.90
2019-03-24T23:35:37.402Z,23.63
2019-03-24T23:38:05.896Z,22.33
2019-03-24T23:40:34.318Z,31.77
2019-03-24T23:43:02.783Z,28.70
2019-03-24T23:45:31.241Z,29.00
2019-03-24T23:47:59.843Z,19.70
2019-03-24T23:50:28.300Z,33.87
2019-03-24T23:52:56.732Z,24.67
2019-03-24T23:55:25.175Z,22.50
2019-03-24T23:57:53.671Z,18.17
